Time;durP1;ratioP1;P1;durP2;ratioP2;P2;SDS_P1;SDS_P2;PMS_P1;PMS_P2;Temp;Humidity;BMP_temperature;BMP_pressure;BME280_temperature;BME280_humidity;BME280_pressure;Samples;Min_cycle;Max_cycle;Signal;HPM_P1;HPM_P2
2022/03/13 00:00:49;;;;;;;15.85;11.18;;;7.50;93.80;;;;;;2092550;68;20264;-66
2022/03/13 00:03:34;;;;;;;15.88;11.40;;;7.50;94.00;;;;;;2089837;68;20917;-67
2022/03/13 00:06:32;;;;;;;19.92;11.68;;;7.50;94.20;;;;;;2082943;68;20210;-67
2022/03/13 00:09:22;;;;;;;16.95;10.77;;;7.50;94.60;;;;;;2088972;68;20345;-65
2022/03/13 00:12:31;;;;;;;16.13;11.38;;;7.40;94.40;;;;;;2096688;68;20341;-67
2022/03/13 00:15:14;;;;;;;15.10;11.48;;;7.40;94.40;;;;;;2086984;68;20365;-66
2022/03/13 00:18:02;;;;;;;14.35;11.07;;;7.40;94.60;;;;;;2089860;68;20293;-66
2022/03/13 00:20:45;;;;;;;15.85;12.00;;;7.40;94.90;;;;;;2084512;68;20404;-66
2022/03/13 00:23:31;;;;;;;15.88;11.73;;;7.40;95.00;;;;;;2083715;68;20657;-67
2022/03/13 00:26:15;;;;;;;;;;;7.40;95.30;;;;;;2082651;68;20211;-67
2022/03/13 00:28:57;;;;;;;14.43;10.02;;;7.30;95.50;;;;;;2086370;68;20266;-66
2022/03/13 00:31:39;;;;;;;18.30;11.52;;;7.30;95.50;;;;;;2115042;67;20699;-67
2022/03/13 00:34:21;;;;;;;15.63;11.00;;;7.30;95.70;;;;;;2131935;67;20703;-66
2022/03/13 00:37:05;;;;;;;16.98;11.60;;;7.40;95.80;;;;;;2116061;67;20605;-65
2022/03/13 00:39:50;;;;;;;18.05;11.93;;;7.40;96.00;;;;;;2108829;67;20364;-66
2022/03/13 00:42:32;;;;;;;14.15;10.88;;;7.40;96.30;;;;;;2109573;67;20309;-66
2022/03/13 00:45:13;;;;;;;17.50;12.48;;;7.40;96.50;;;;;;2104008;67;20613;-67
2022/03/13 00:47:56;;;;;;;14.60;10.88;;;7.40;96.50;;;;;;2102573;68;20387;-67
2022/03/13 00:50:38;;;;;;;16.85;10.65;;;7.40;96.60;;;;;;2110140;67;20273;-67
2022/03/13 00:53:19;;;;;;;15.70;11.75;;;7.40;96.60;;;;;;2096545;68;20179;-66
2022/03/13 00:56:01;;;;;;;16.55;11.02;;;7.40;97.20;;;;;;2103901;68;20989;-66
2022/03/13 00:58:44;;;;;;;17.33;11.82;;;7.40;96.90;;;;;;2110896;67;20270;-67
2022/03/13 01:01:29;;;;;;;16.42;11.85;;;7.40;97.00;;;;;;2099080;68;20734;-66
2022/03/13 01:04:12;;;;;;;15.77;11.35;;;7.40;97.10;;;;;;2102093;68;20425;-66
2022/03/13 01:06:55;;;;;;;18.55;12.32;;;7.40;97.20;;;;;;2095150;68;20205;-66
2022/03/13 01:09:39;;;;;;;17.23;12.10;;;7.40;97.20;;;;;;2102740;68;20294;-66
2022/03/13 01:12:21;;;;;;;18.52;11.88;;;7.40;97.30;;;;;;2117991;67;20197;-66
2022/03/13 01:15:06;;;;;;;14.90;11.95;;;7.40;97.50;;;;;;2117885;67;20177;-67
2022/03/13 01:17:48;;;;;;;17.95;12.70;;;7.40;97.60;;;;;;2103657;68;20421;-66
2022/03/13 01:20:34;;;;;;;17.48;12.88;;;7.40;97.80;;;;;;2118204;67;20363;-67
2022/03/13 01:23:23;;;;;;;16.67;12.15;;;7.40;97.80;;;;;;2109972;67;20215;-67
2022/03/13 01:26:21;;;;;;;20.92;12.88;;;7.40;97.90;;;;;;2117753;67;20303;-67
2022/03/13 01:29:08;;;;;;;15.55;12.35;;;7.70;98.10;;;;;;2124585;67;20352;-69
2022/03/13 01:31:52;;;;;;;15.93;11.88;;;7.40;98.30;;;;;;2119247;67;20184;-66
2022/03/13 01:34:34;;;;;;;17.58;11.25;;;7.40;98.20;;;;;;2110655;67;20245;-66
2022/03/13 01:37:37;;;;;;;17.00;11.73;;;7.40;98.40;;;;;;2112232;67;20932;-67
2022/03/13 01:40:21;;;;;;;15.98;11.57;;;7.40;98.30;;;;;;2110636;67;20177;-66
2022/03/13 01:43:03;;;;;;;18.15;12.40;;;7.50;98.30;;;;;;2090754;68;20618;-66
2022/03/13 01:45:45;;;;;;;16.30;12.38;;;7.50;98.30;;;;;;2094328;68;20351;-66
2022/03/13 01:48:28;;;;;;;16.48;11.40;;;7.50;98.50;;;;;;2091593;68;20257;-67
2022/03/13 01:51:11;;;;;;;14.20;11.05;;;7.50;98.80;;;;;;2101102;68;20436;-66
2022/03/13 01:54:20;;;;;;;15.45;11.90;;;7.40;98.80;;;;;;2076988;68;20260;-66
2022/03/13 01:57:02;;;;;;;18.13;12.45;;;7.40;99.00;;;;;;2071576;68;20262;-66
2022/03/13 01:59:44;;;;;;;15.20;11.43;;;7.50;99.00;;;;;;2075874;68;20330;-66
2022/03/13 02:02:29;;;;;;;14.98;11.45;;;7.50;99.00;;;;;;2086222;68;20855;-67
2022/03/13 02:05:26;;;;;;;16.52;11.85;;;7.50;99.00;;;;;;2100244;67;20401;-66
2022/03/13 02:08:19;;;;;;;15.05;11.88;;;7.50;99.00;;;;;;2113042;67;20360;-66
2022/03/13 02:11:03;;;;;;;17.83;12.38;;;7.50;99.20;;;;;;2123289;67;20342;-66
2022/03/13 02:13:47;;;;;;;16.23;11.95;;;7.40;99.50;;;;;;2107076;67;20350;-66
2022/03/13 02:16:29;;;;;;;17.42;11.93;;;7.50;99.50;;;;;;2116319;67;20307;-66
2022/03/13 02:19:11;;;;;;;14.70;11.65;;;7.40;99.70;;;;;;2125581;67;20295;-67
2022/03/13 02:21:53;;;;;;;15.98;11.75;;;7.50;99.80;;;;;;2119727;67;20236;-65
2022/03/13 02:24:38;;;;;;;14.35;11.45;;;7.40;99.90;;;;;;2128241;67;20235;-66
2022/03/13 02:27:25;;;;;;;16.67;12.32;;;7.40;99.90;;;;;;2122970;67;20579;-66
2022/03/13 02:30:13;;;;;;;14.25;11.82;;;7.40;99.90;;;;;;2116269;67;20370;-67
2022/03/13 02:32:58;;;;;;;17.20;12.43;;;7.40;99.90;;;;;;2125327;67;20275;-65
2022/03/13 02:35:40;;;;;;;18.55;12.57;;;7.40;99.90;;;;;;2119689;67;20204;-66
2022/03/13 02:38:42;;;;;;;15.75;12.18;;;7.40;99.90;;;;;;2125292;67;20350;-66
2022/03/13 02:41:26;;;;;;;16.88;12.63;;;7.40;99.90;;;;;;2123831;67;20726;-65
2022/03/13 02:44:14;;;;;;;16.75;12.07;;;7.40;99.90;;;;;;2117656;67;20180;-67
2022/03/13 02:47:01;;;;;;;14.30;11.63;;;7.40;99.90;;;;;;2105791;67;20304;-66
2022/03/13 02:49:45;;;;;;;17.30;12.52;;;7.40;99.90;;;;;;2105021;67;20885;-66
2022/03/13 02:52:29;;;;;;;17.05;13.25;;;7.40;99.90;;;;;;2104752;67;20324;-66
2022/03/13 02:55:12;;;;;;;16.45;12.13;;;7.40;99.90;;;;;;2116240;67;20606;-67
2022/03/13 02:57:56;;;;;;;15.80;12.75;;;7.40;99.90;;;;;;2118287;67;20351;-66
2022/03/13 03:00:48;;;;;;;15.35;11.80;;;7.40;99.90;;;;;;2115688;67;20169;-66
2022/03/13 03:03:30;;;;;;;19.52;13.70;;;7.40;99.90;;;;;;2113558;67;20283;-68
2022/03/13 03:06:14;;;;;;;18.05;13.80;;;7.40;99.90;;;;;;2127000;67;20171;-67
2022/03/13 03:09:02;;;;;;;17.30;12.93;;;7.50;99.90;;;;;;2116005;67;20307;-65
2022/03/13 03:11:44;;;;;;;18.23;13.73;;;7.30;99.90;;;;;;2110380;67;20203;-67
2022/03/13 03:14:26;;;;;;;17.50;12.70;;;7.30;99.90;;;;;;2112153;67;20266;-67
2022/03/13 03:17:13;;;;;;;18.55;12.90;;;7.30;99.90;;;;;;2111244;67;20296;-66
2022/03/13 03:19:55;;;;;;;16.98;12.93;;;7.20;99.90;;;;;;2112003;67;20424;-66
2022/03/13 03:22:37;;;;;;;20.10;14.00;;;7.20;99.90;;;;;;2121672;67;20595;-66
2022/03/13 03:25:25;;;;;;;20.83;13.57;;;7.20;99.90;;;;;;2117812;67;20306;-66
2022/03/13 03:28:08;;;;;;;18.90;14.20;;;7.20;99.90;;;;;;2117929;67;20664;-65
2022/03/13 03:30:52;;;;;;;;;;;7.10;99.90;;;;;;2115701;67;20209;-67
2022/03/13 03:33:35;;;;;;;18.40;12.65;;;7.30;99.90;;;;;;2099244;67;20426;-64
2022/03/13 03:36:20;;;;;;;16.88;13.07;;;7.10;99.90;;;;;;2088999;68;20429;-66
2022/03/13 03:39:01;;;;;;;18.52;13.18;;;7.10;99.90;;;;;;2096431;68;20211;-66
2022/03/13 03:41:45;;;;;;;18.95;12.27;;;7.00;99.90;;;;;;2096409;68;20219;-66
2022/03/13 03:44:26;;;;;;;18.88;13.32;;;7.00;99.90;;;;;;2100515;68;20357;-66
2022/03/13 03:47:08;;;;;;;16.98;12.23;;;7.00;99.90;;;;;;2103717;68;20255;-68
2022/03/13 03:49:50;;;;;;;19.50;13.30;;;7.00;99.90;;;;;;2112215;67;20170;-67
2022/03/13 03:52:32;;;;;;;18.25;13.30;;;7.00;99.90;;;;;;2126852;67;20353;-66
2022/03/13 03:55:16;;;;;;;20.45;13.55;;;6.90;99.90;;;;;;2132262;67;20183;-66
2022/03/13 03:58:01;;;;;;;18.90;13.18;;;6.90;99.90;;;;;;2125282;67;20328;-66
2022/03/13 04:00:44;;;;;;;19.42;14.13;;;6.90;99.90;;;;;;2132428;67;20312;-65
2022/03/13 04:03:26;;;;;;;17.85;13.73;;;6.80;99.90;;;;;;2132244;67;20163;-67
2022/03/13 04:06:09;;;;;;;20.10;13.55;;;6.80;99.90;;;;;;2132401;67;20766;-66
2022/03/13 04:08:56;;;;;;;15.65;13.20;;;6.80;99.90;;;;;;2137900;66;20242;-66
2022/03/13 04:11:43;;;;;;;16.45;12.65;;;6.70;99.90;;;;;;2118114;67;20173;-67
2022/03/13 04:14:28;;;;;;;15.48;12.70;;;6.60;99.90;;;;;;2110889;67;20327;-67
2022/03/13 04:17:11;;;;;;;20.10;13.15;;;6.50;99.90;;;;;;2103755;68;20686;-66
2022/03/13 04:19:54;;;;;;;19.83;13.80;;;6.50;99.90;;;;;;2096631;68;20281;-66
2022/03/13 04:22:39;;;;;;;20.73;13.88;;;6.40;99.90;;;;;;2098102;67;20403;-66
2022/03/13 04:25:22;;;;;;;16.23;13.13;;;6.30;99.90;;;;;;2101454;67;20404;-67
2022/03/13 04:28:05;;;;;;;18.67;13.05;;;6.30;99.90;;;;;;2108084;67;20328;-67
2022/03/13 04:30:53;;;;;;;18.58;13.45;;;6.30;99.90;;;;;;2100262;67;20344;-67
2022/03/13 04:33:40;;;;;;;18.10;13.05;;;6.20;99.90;;;;;;2104813;67;20229;-66
2022/03/13 04:36:25;;;;;;;17.00;12.82;;;6.20;99.90;;;;;;2090107;68;20217;-66
2022/03/13 04:39:08;;;;;;;22.15;13.10;;;6.10;99.90;;;;;;2106420;67;20781;-67
2022/03/13 04:41:49;;;;;;;17.85;12.85;;;6.10;99.90;;;;;;2104006;67;20710;-67
2022/03/13 04:44:34;;;;;;;17.58;12.35;;;6.10;99.90;;;;;;2099050;68;20733;-65
2022/03/13 04:47:18;;;;;;;17.70;12.65;;;6.10;99.90;;;;;;2103868;68;20358;-66
2022/03/13 04:50:01;;;;;;;20.40;13.18;;;6.50;99.90;;;;;;2103616;68;20178;-66
2022/03/13 04:52:46;;;;;;;20.60;13.95;;;6.20;99.90;;;;;;2102932;67;20170;-66
2022/03/13 04:55:31;;;;;;;19.90;12.48;;;6.20;99.90;;;;;;2109427;67;20278;-66
2022/03/13 04:58:13;;;;;;;18.60;13.02;;;6.20;99.90;;;;;;2105665;67;20252;-66
2022/03/13 05:00:54;;;;;;;18.95;13.57;;;6.30;99.90;;;;;;2099982;68;20811;-66
2022/03/13 05:03:36;;;;;;;17.65;13.35;;;6.30;99.90;;;;;;2109260;67;20226;-67
2022/03/13 05:06:18;;;;;;;15.98;12.20;;;6.30;99.90;;;;;;2110382;67;20330;-66
2022/03/13 05:09:00;;;;;;;20.38;11.98;;;6.30;99.90;;;;;;2117648;67;20268;-66
2022/03/13 05:11:42;;;;;;;18.40;12.18;;;6.30;99.90;;;;;;2117812;67;20341;-65
2022/03/13 05:14:24;;;;;;;16.02;12.40;;;6.30;99.90;;;;;;2116231;67;20322;-66
2022/03/13 05:17:06;;;;;;;18.38;12.35;;;6.30;99.90;;;;;;2117014;67;20305;-66
2022/03/13 05:19:50;;;;;;;19.75;13.27;;;6.30;99.90;;;;;;2110582;67;20442;-66
2022/03/13 05:22:35;;;;;;;16.50;12.48;;;6.20;99.90;;;;;;2117772;67;20232;-65
2022/03/13 05:25:18;;;;;;;17.58;12.60;;;6.20;99.90;;;;;;2118557;67;20380;-66
2022/03/13 05:28:01;;;;;;;19.10;13.80;;;6.20;99.90;;;;;;2139983;66;20221;-65
2022/03/13 05:30:46;;;;;;;15.10;11.93;;;6.10;99.90;;;;;;2138872;66;20362;-66
2022/03/13 05:33:30;;;;;;;17.52;12.77;;;6.10;99.90;;;;;;2133208;67;20711;-67
2022/03/13 05:36:13;;;;;;;19.38;13.15;;;6.10;99.90;;;;;;2119334;67;20280;-65
2022/03/13 05:38:56;;;;;;;17.92;12.88;;;6.00;99.90;;;;;;2127815;67;20268;-66
2022/03/13 05:41:42;;;;;;;14.98;12.45;;;6.10;99.90;;;;;;2136462;66;20580;-66
2022/03/13 05:44:25;;;;;;;20.38;11.65;;;6.00;99.90;;;;;;2125894;67;20204;-66
2022/03/13 05:47:08;;;;;;;15.63;11.88;;;6.00;99.90;;;;;;2110812;67;20265;-66
2022/03/13 05:49:52;;;;;;;16.58;11.95;;;6.00;99.90;;;;;;2107577;67;20277;-67
2022/03/13 05:52:37;;;;;;;16.25;11.32;;;6.00;99.90;;;;;;2117460;67;20400;-66
2022/03/13 05:55:19;;;;;;;17.42;12.23;;;6.10;99.90;;;;;;2113043;67;20288;-66
2022/03/13 05:58:00;;;;;;;17.30;11.57;;;6.10;99.90;;;;;;2117907;67;20291;-65
2022/03/13 06:00:43;;;;;;;14.60;10.40;;;6.10;99.90;;;;;;2094263;68;20201;-67
2022/03/13 06:03:28;;;;;;;13.88;11.30;;;6.20;99.90;;;;;;2113431;67;20264;-66
2022/03/13 06:06:16;;;;;;;17.38;11.35;;;6.20;99.90;;;;;;2126922;67;20248;-66
2022/03/13 06:09:00;;;;;;;14.73;10.75;;;6.30;99.90;;;;;;2121101;67;20333;-67
2022/03/13 06:11:43;;;;;;;14.93;11.13;;;6.20;99.90;;;;;;2122750;67;20743;-66
2022/03/13 06:14:26;;;;;;;15.07;11.30;;;6.30;99.90;;;;;;2129735;67;20188;-67
2022/03/13 06:17:11;;;;;;;15.13;11.35;;;6.40;99.90;;;;;;2131251;67;20185;-65
2022/03/13 06:19:56;;;;;;;14.75;10.77;;;6.40;99.90;;;;;;2141663;66;20227;-65
2022/03/13 06:22:40;;;;;;;16.13;10.27;;;6.50;99.90;;;;;;2126339;67;20231;-67
2022/03/13 06:25:24;;;;;;;16.40;11.07;;;6.50;99.90;;;;;;2111344;67;20238;-66
2022/03/13 06:28:06;;;;;;;16.48;11.88;;;6.50;99.90;;;;;;2126054;67;20429;-66
2022/03/13 06:30:49;;;;;;;15.23;10.27;;;6.50;99.90;;;;;;2132133;67;20414;-66
2022/03/13 06:33:32;;;;;;;16.50;10.98;;;6.50;99.90;;;;;;2120474;67;20211;-67
2022/03/13 06:36:15;;;;;;;15.60;11.55;;;6.50;99.90;;;;;;2125659;67;20827;-66
2022/03/13 06:38:58;;;;;;;15.07;11.38;;;6.50;99.90;;;;;;2118715;67;20314;-67
2022/03/13 06:41:42;;;;;;;14.63;11.05;;;6.50;99.90;;;;;;2103549;67;20343;-65
2022/03/13 06:44:25;;;;;;;15.20;10.90;;;6.50;99.90;;;;;;2106668;67;20657;-66
2022/03/13 06:47:15;;;;;;;15.90;11.15;;;6.40;99.90;;;;;;2111965;67;20721;-66
2022/03/13 06:50:00;;;;;;;17.52;11.68;;;6.40;99.90;;;;;;2124333;67;20514;-65
2022/03/13 06:52:42;;;;;;;12.77;11.13;;;6.40;99.90;;;;;;2106327;67;20354;-66
2022/03/13 06:55:25;;;;;;;14.63;11.35;;;6.30;99.90;;;;;;2104301;68;20221;-66
2022/03/13 06:58:11;;;;;;;17.13;10.85;;;6.30;99.90;;;;;;2104984;67;20211;-68
2022/03/13 07:00:54;;;;;;;16.88;10.63;;;6.30;99.90;;;;;;2103989;68;20449;-66
2022/03/13 07:03:36;;;;;;;13.25;10.45;;;6.30;99.90;;;;;;2098642;67;20344;-66
2022/03/13 07:06:19;;;;;;;12.77;11.05;;;6.30;99.90;;;;;;2104501;68;20324;-66
2022/03/13 07:09:03;;;;;;;;;;;6.30;99.90;;;;;;2118918;67;20706;-66
2022/03/13 07:11:49;;;;;;;11.43;9.35;;;6.40;99.90;;;;;;2106820;67;20647;-67
2022/03/13 07:14:31;;;;;;;16.58;11.52;;;6.40;99.90;;;;;;2095892;68;20687;-66
2022/03/13 07:17:17;;;;;;;15.25;11.45;;;6.50;99.90;;;;;;2091606;68;20543;-67
2022/03/13 07:19:59;;;;;;;15.93;11.07;;;6.50;99.90;;;;;;2102748;68;20216;-65
2022/03/13 07:22:44;;;;;;;16.98;11.57;;;6.60;99.90;;;;;;2097445;68;20186;-66
2022/03/13 07:25:30;;;;;;;16.13;12.02;;;6.60;99.90;;;;;;2108674;67;20182;-66
2022/03/13 07:28:14;;;;;;;;;;;6.70;99.90;;;;;;2110480;67;20829;-67
2022/03/13 07:31:01;;;;;;;13.75;9.77;;;7.10;99.90;;;;;;2106563;67;20065;-66
2022/03/13 07:33:45;;;;;;;;;;;6.50;99.90;;;;;;2096998;68;20271;-67
2022/03/13 07:36:27;;;;;;;13.40;10.05;;;6.80;99.90;;;;;;2099385;68;20315;-67
2022/03/13 07:39:08;;;;;;;12.73;10.25;;;6.80;99.50;;;;;;2097325;68;20250;-67
2022/03/13 07:41:56;;;;;;;14.77;11.05;;;6.90;98.90;;;;;;2082702;68;20209;-67
2022/03/13 07:44:41;;;;;;;14.85;10.73;;;7.00;98.50;;;;;;2086790;68;20377;-67
2022/03/13 07:47:26;;;;;;;13.40;9.90;;;7.10;97.60;;;;;;2090575;68;20908;-66
2022/03/13 07:50:08;;;;;;;14.68;10.27;;;7.20;97.20;;;;;;2086122;68;20770;-67
2022/03/13 07:52:52;;;;;;;13.77;10.35;;;7.30;96.70;;;;;;2092670;68;20296;-67
2022/03/13 07:55:38;;;;;;;12.43;9.13;;;7.30;95.90;;;;;;2115548;67;20200;-65
2022/03/13 07:58:21;;;;;;;13.43;10.65;;;7.40;95.50;;;;;;2119572;67;20206;-66
2022/03/13 08:01:11;;;;;;;12.13;9.80;;;7.50;94.70;;;;;;2106947;67;20199;-67
2022/03/13 08:03:56;;;;;;;14.38;9.93;;;7.50;94.10;;;;;;2124467;67;20183;-67
2022/03/13 08:06:39;;;;;;;13.88;10.05;;;7.60;94.00;;;;;;2130254;67;20302;-67
2022/03/13 08:09:27;;;;;;;15.18;10.25;;;7.80;93.70;;;;;;2145192;66;20338;-68
2022/03/13 08:12:11;;;;;;;12.35;10.18;;;7.80;93.00;;;;;;2138688;66;20820;-67
2022/03/13 08:14:54;;;;;;;15.02;11.20;;;7.90;92.10;;;;;;2138342;67;20232;-67
2022/03/13 08:17:36;;;;;;;13.10;10.07;;;8.10;91.70;;;;;;2126729;67;20184;-67
2022/03/13 08:20:18;;;;;;;13.52;9.88;;;8.20;91.20;;;;;;2139329;67;20186;-67
2022/03/13 08:23:02;;;;;;;13.70;10.27;;;8.30;90.50;;;;;;2128065;67;20551;-67
2022/03/13 08:25:45;;;;;;;12.48;10.27;;;8.40;89.90;;;;;;2130261;67;20221;-67
2022/03/13 08:28:27;;;;;;;26.83;10.40;;;8.50;88.60;;;;;;2119170;67;20243;-68
2022/03/13 08:31:09;;;;;;;12.55;10.15;;;8.70;87.50;;;;;;2132832;67;20710;-67
2022/03/13 08:33:52;;;;;;;13.32;10.25;;;8.80;86.60;;;;;;2119631;67;20254;-67
2022/03/13 08:36:40;;;;;;;14.77;9.75;;;9.00;85.90;;;;;;2117678;67;20347;-67
2022/03/13 08:39:25;;;;;;;12.65;9.95;;;9.10;85.10;;;;;;2117461;67;20197;-67
2022/03/13 08:42:08;;;;;;;12.50;10.15;;;9.20;83.30;;;;;;2111667;67;20804;-67
2022/03/13 08:44:51;;;;;;;11.77;9.75;;;9.30;82.50;;;;;;2112300;67;20209;-66
2022/03/13 08:47:35;;;;;;;;;;;9.40;82.40;;;;;;2104702;67;20186;-67
2022/03/13 08:50:17;;;;;;;14.85;9.65;;;9.50;81.00;;;;;;2122020;67;20065;-67
2022/03/13 08:52:59;;;;;;;13.25;10.38;;;9.60;81.60;;;;;;2117984;67;20330;-67
2022/03/13 08:55:43;;;;;;;14.45;9.63;;;9.70;80.10;;;;;;2096845;68;20204;-67
2022/03/13 08:58:31;;;;;;;12.38;9.55;;;9.80;79.30;;;;;;2089553;68;20227;-67
2022/03/13 09:01:18;;;;;;;12.98;9.45;;;9.80;78.40;;;;;;2090095;68;20311;-68
2022/03/13 09:04:01;;;;;;;11.90;10.63;;;9.70;77.90;;;;;;2081921;68;20855;-67
2022/03/13 09:06:46;;;;;;;14.68;10.43;;;9.70;78.10;;;;;;2070327;69;20445;-67
2022/03/13 09:09:31;;;;;;;15.45;10.95;;;9.70;77.70;;;;;;2079216;68;20811;-67
2022/03/13 09:12:13;;;;;;;14.30;10.25;;;9.60;77.00;;;;;;2089243;68;20242;-66
2022/03/13 09:15:37;;;;;;;15.25;9.32;;;9.60;76.40;;;;;;2096759;68;20204;-66
2022/03/13 09:18:19;;;;;;;12.52;9.98;;;9.50;76.50;;;;;;2101322;68;20203;-67
2022/03/13 09:21:01;;;;;;;12.13;9.70;;;9.50;76.70;;;;;;2096820;68;20333;-67
2022/03/13 09:23:43;;;;;;;12.77;10.00;;;9.50;76.60;;;;;;2096564;68;20187;-67
2022/03/13 09:26:26;;;;;;;11.80;9.60;;;9.50;76.10;;;;;;2081893;68;20306;-68
2022/03/13 09:29:08;;;;;;;11.40;9.40;;;9.50;76.30;;;;;;2077274;68;20261;-67
2022/03/13 09:31:50;;;;;;;13.82;10.25;;;9.50;76.50;;;;;;2101113;67;20174;-67
2022/03/13 09:34:34;;;;;;;12.75;10.43;;;9.50;75.70;;;;;;2113215;67;20613;-67
2022/03/13 09:37:18;;;;;;;13.10;9.93;;;9.60;75.00;;;;;;2118394;67;20373;-66
2022/03/13 09:40:02;;;;;;;13.43;9.38;;;9.60;74.40;;;;;;2127143;67;20255;-67
2022/03/13 09:42:46;;;;;;;12.52;9.75;;;9.70;73.70;;;;;;2131155;67;20201;-68
2022/03/13 09:45:29;;;;;;;13.23;9.07;;;9.70;73.30;;;;;;2125689;67;20313;-67
2022/03/13 09:48:23;;;;;;;12.85;9.20;;;9.80;73.40;;;;;;2124541;67;20204;-67
2022/03/13 09:51:09;;;;;;;16.83;9.80;;;9.90;73.10;;;;;;2111353;67;20312;-67
2022/03/13 09:53:51;;;;;;;12.98;9.68;;;10.00;73.00;;;;;;2110405;67;20304;-68
2022/03/13 09:56:38;;;;;;;16.25;9.85;;;10.10;72.90;;;;;;2091908;68;20619;-66
2022/03/13 09:59:21;;;;;;;13.98;9.73;;;10.00;72.30;;;;;;2088391;68;20249;-66
2022/03/13 10:02:08;;;;;;;13.30;9.70;;;10.30;71.50;;;;;;2079628;68;20367;-67
2022/03/13 10:05:00;;;;;;;13.10;9.18;;;10.40;70.90;;;;;;2077189;69;20338;-67
2022/03/13 10:08:03;;;;;;;13.77;9.48;;;10.50;70.50;;;;;;2087168;68;21038;-67
2022/03/13 10:10:49;;;;;;;11.43;9.52;;;10.70;70.10;;;;;;2093537;68;20604;-67
2022/03/13 10:13:51;;;;;;;14.30;9.77;;;10.80;69.40;;;;;;2083013;68;20184;-68
2022/03/13 10:16:49;;;;;;;15.15;10.38;;;10.90;69.00;;;;;;2093066;68;20495;-67
2022/03/13 10:19:33;;;;;;;15.05;10.32;;;11.00;68.90;;;;;;2100550;68;20189;-67
2022/03/13 10:22:38;;;;;;;12.60;9.85;;;11.10;68.60;;;;;;2097731;68;20502;-67
2022/03/13 10:25:41;;;;;;;13.38;10.10;;;11.30;67.10;;;;;;2106882;67;20193;-66
2022/03/13 10:28:28;;;;;;;13.32;9.68;;;11.40;66.60;;;;;;2110803;67;20915;-67
2022/03/13 10:31:19;;;;;;;13.68;10.70;;;11.60;65.50;;;;;;2105490;67;20174;-66
2022/03/13 10:34:04;;;;;;;12.93;9.35;;;11.70;65.30;;;;;;2096568;68;20239;-68
2022/03/13 10:36:47;;;;;;;15.02;10.55;;;11.80;64.00;;;;;;2106274;67;20203;-67
2022/03/13 10:39:31;;;;;;;13.77;10.05;;;12.00;63.30;;;;;;2111418;67;20650;-67
2022/03/13 10:42:18;;;;;;;14.00;10.68;;;12.20;63.30;;;;;;2104768;67;20186;-67
2022/03/13 10:45:06;;;;;;;15.35;9.98;;;12.40;62.80;;;;;;2099746;67;20178;-67
2022/03/13 10:47:50;;;;;;;13.95;9.60;;;12.70;63.10;;;;;;2093928;68;20276;-67
2022/03/13 10:50:46;;;;;;;11.80;9.40;;;13.10;63.50;;;;;;2095416;68;20170;-67
2022/03/13 10:53:41;;;;;;;14.68;11.07;;;13.40;61.40;;;;;;2093244;68;20345;-68
2022/03/13 10:56:27;;;;;;;15.32;10.00;;;13.80;61.40;;;;;;2107784;67;20258;-69
2022/03/13 10:59:19;;;;;;;12.73;10.63;;;14.20;60.90;;;;;;2104192;67;20190;-67
2022/03/13 11:02:12;;;;;;;13.55;10.45;;;14.50;60.30;;;;;;2114249;67;20173;-67
2022/03/13 11:05:00;;;;;;;12.90;10.13;;;14.90;59.90;;;;;;2119398;67;20259;-68
2022/03/13 11:07:48;;;;;;;13.90;10.00;;;15.30;58.40;;;;;;2125347;67;20197;-68
2022/03/13 11:10:57;;;;;;;11.95;9.68;;;15.70;57.10;;;;;;2139532;66;20234;-67
2022/03/13 11:13:59;;;;;;;13.48;10.13;;;16.10;56.80;;;;;;2130045;66;20260;-69
2022/03/13 11:16:42;;;;;;;12.85;10.98;;;16.60;55.80;;;;;;2125455;67;20184;-68
2022/03/13 11:19:24;;;;;;;14.75;9.68;;;17.00;54.30;;;;;;2124811;67;20710;-68
2022/03/13 11:22:26;;;;;;;14.13;10.25;;;17.40;53.30;;;;;;2115113;67;20256;-67
2022/03/13 11:25:16;;;;;;;13.02;10.07;;;17.90;51.60;;;;;;2113751;67;20206;-67
2022/03/13 11:28:05;;;;;;;11.95;9.30;;;18.40;50.80;;;;;;2099971;67;20194;-67
2022/03/13 11:30:47;;;;;;;12.57;10.00;;;18.80;50.00;;;;;;2105762;67;20237;-68
2022/03/13 11:33:41;;;;;;;12.18;9.52;;;19.20;48.80;;;;;;2108776;67;20212;-68
2022/03/13 11:36:26;;;;;;;12.40;10.20;;;19.70;47.80;;;;;;2130481;67;20761;-68
2022/03/13 11:39:24;;;;;;;11.77;10.02;;;20.00;46.50;;;;;;2103307;68;20220;-69
2022/03/13 11:45:20;;;;;;;10.73;9.60;;;20.20;45.90;;;;;;2266291;62;20440;-69
2022/03/13 11:48:08;;;;;;;11.70;10.50;;;21.20;43.50;;;;;;2245441;63;20168;-69
2022/03/13 11:50:59;;;;;;;11.70;10.07;;;21.30;43.60;;;;;;2223900;64;20162;-68
2022/03/13 11:54:00;;;;;;;11.88;10.68;;;21.30;42.40;;;;;;2216699;64;20313;-68
2022/03/13 11:56:49;;;;;;;13.60;10.50;;;21.50;43.10;;;;;;2191923;65;20189;-69
2022/03/13 11:59:32;;;;;;;11.73;9.60;;;21.90;42.70;;;;;;2167051;66;20321;-69
2022/03/13 12:02:34;;;;;;;11.73;10.10;;;22.10;41.80;;;;;;2159090;66;20218;-69
2022/03/13 12:05:29;;;;;;;11.82;10.63;;;22.50;41.30;;;;;;2159532;66;20208;-68
2022/03/13 12:08:15;;;;;;;12.02;10.38;;;23.10;39.50;;;;;;2159682;66;20197;-68
2022/03/13 12:10:57;;;;;;;12.60;10.85;;;23.30;40.00;;;;;;2159348;66;20225;-69
2022/03/13 12:13:49;;;;;;;12.27;11.07;;;23.50;39.20;;;;;;2152028;66;20276;-68
2022/03/13 12:16:32;;;;;;;13.02;10.73;;;23.50;38.90;;;;;;2152288;66;20311;-69
2022/03/13 12:19:25;;;;;;;11.73;9.60;;;23.50;38.30;;;;;;2140226;66;20355;-68
2022/03/13 12:22:07;;;;;;;10.25;9.20;;;23.50;37.80;;;;;;2149316;66;20266;-68
2022/03/13 12:25:12;;;;;;;10.60;8.88;;;23.70;38.10;;;;;;2151228;66;20311;-68
2022/03/13 12:27:55;;;;;;;10.80;9.77;;;23.80;36.60;;;;;;2155383;66;20211;-69
2022/03/13 12:31:04;;;;;;;11.23;10.20;;;23.90;37.60;;;;;;2153414;66;20687;-69
2022/03/13 12:33:58;;;;;;;10.90;9.77;;;24.10;37.20;;;;;;2166546;66;20304;-68
2022/03/13 12:36:45;;;;;;;12.02;10.18;;;24.70;37.40;;;;;;2164253;65;20326;-68
2022/03/13 12:39:29;;;;;;;10.95;9.93;;;25.30;36.40;;;;;;2155544;66;20194;-69
2022/03/13 12:42:21;;;;;;;10.23;9.23;;;25.80;35.60;;;;;;2144183;66;20415;-69
2022/03/13 12:45:11;;;;;;;11.23;10.10;;;26.00;34.90;;;;;;2141997;66;21072;-68
2022/03/13 12:47:56;;;;;;;11.68;10.45;;;26.00;34.60;;;;;;2150665;66;20779;-68
2022/03/13 12:50:38;;;;;;;11.48;10.35;;;26.20;34.30;;;;;;2152883;66;20673;-68
2022/03/13 12:53:22;;;;;;;12.35;10.18;;;26.40;34.10;;;;;;2147783;66;20264;-69
2022/03/13 12:56:08;;;;;;;11.73;10.63;;;26.80;33.50;;;;;;2131753;67;20340;-69
2022/03/13 12:58:51;;;;;;;11.35;10.20;;;26.90;33.50;;;;;;2140429;66;20162;-70
2022/03/13 13:01:40;;;;;;;11.23;10.13;;;27.40;33.30;;;;;;2138902;66;20362;-68
2022/03/13 13:04:27;;;;;;;11.75;10.55;;;27.80;33.10;;;;;;2135407;67;20335;-69
2022/03/13 13:07:14;;;;;;;12.05;10.60;;;28.00;32.30;;;;;;2130160;67;20946;-70
2022/03/13 13:09:57;;;;;;;12.23;11.07;;;28.00;31.80;;;;;;2116567;67;20746;-68
2022/03/13 13:12:42;;;;;;;11.20;10.10;;;28.20;31.40;;;;;;2116882;67;20640;-68
2022/03/13 13:15:26;;;;;;;12.25;10.95;;;28.30;31.40;;;;;;2125293;67;20673;-69
2022/03/13 13:18:13;;;;;;;11.40;10.20;;;28.70;31.20;;;;;;2124579;67;20651;-68
2022/03/13 13:21:09;;;;;;;13.45;10.95;;;29.20;31.10;;;;;;2117136;67;20827;-70
2022/03/13 13:23:51;;;;;;;11.55;10.40;;;29.80;30.90;;;;;;2129280;67;20236;-69
2022/03/13 13:26:42;;;;;;;11.55;10.45;;;30.00;29.90;;;;;;2135217;66;20338;-67
2022/03/13 13:29:50;;;;;;;11.75;10.65;;;30.10;30.00;;;;;;2155393;66;20345;-69
2022/03/13 13:32:32;;;;;;;10.73;9.73;;;30.20;30.20;;;;;;2138999;66;20261;-68
2022/03/13 13:35:48;;;;;;;11.30;10.10;;;30.30;29.80;;;;;;2135893;66;20179;-69
2022/03/13 13:38:34;;;;;;;12.00;10.80;;;30.30;30.10;;;;;;2131891;67;20442;-68
2022/03/13 13:41:23;;;;;;;12.15;10.95;;;30.00;29.40;;;;;;2128625;67;20280;-70
2022/03/13 13:44:05;;;;;;;11.98;10.77;;;29.90;29.30;;;;;;2123910;67;20846;-70
2022/03/13 13:47:03;;;;;;;11.15;10.05;;;30.00;29.20;;;;;;2123599;67;20305;-69
2022/03/13 13:49:46;;;;;;;11.32;10.23;;;30.10;29.40;;;;;;2130413;66;20168;-68
2022/03/13 13:52:32;;;;;;;12.20;11.10;;;30.20;29.30;;;;;;2136695;66;20623;-69
2022/03/13 13:55:22;;;;;;;12.60;11.38;;;30.40;29.20;;;;;;2124788;67;20266;-69
2022/03/13 13:58:17;;;;;;;11.88;10.85;;;30.50;29.50;;;;;;2118076;67;20200;-69
2022/03/13 14:01:24;;;;;;;12.00;10.90;;;30.40;28.90;;;;;;2110539;67;20812;-70
2022/03/13 14:04:06;;;;;;;11.77;10.60;;;30.60;29.30;;;;;;2104226;67;20258;-70
2022/03/13 14:06:48;;;;;;;11.88;10.68;;;30.50;28.70;;;;;;2113656;67;20199;-69
2022/03/13 14:09:32;;;;;;;13.23;11.93;;;30.50;28.40;;;;;;2112541;67;20181;-69
2022/03/13 14:12:17;;;;;;;11.82;10.48;;;30.20;28.70;;;;;;2114586;67;20333;-70
2022/03/13 14:15:00;;;;;;;12.15;10.82;;;30.20;28.80;;;;;;2127607;67;20387;-69
2022/03/13 14:17:48;;;;;;;12.35;11.15;;;30.40;28.70;;;;;;2133136;66;20330;-70